Time;durP1;ratioP1;P1;durP2;ratioP2;P2;SDS_P1;SDS_P2;PMS_P1;PMS_P2;Temp;Humidity;BMP_temperature;BMP_pressure;BME280_temperature;BME280_humidity;BME280_pressure;Samples;Min_cycle;Max_cycle;Signal;HPM_P1;HPM_P2
2023/03/03 00:00:38;;;;;;;;;17.50;15.50;28.40;36.20;;;;;;109676;1255;56773;-67
2023/03/03 00:03:20;;;;;;;;;18.50;16.00;28.40;36.10;;;;;;109599;1260;53538;-67
2023/03/03 00:05:47;;;;;;;;;23.00;17.00;28.50;36.10;;;;;;109668;1255;49566;-69
2023/03/03 00:08:13;;;;;;;;;17.50;16.25;28.50;36.10;;;;;;109602;1255;49057;-65
2023/03/03 00:10:39;;;;;;;;;20.00;17.00;28.50;35.80;;;;;;109634;1259;45351;-65
2023/03/03 00:13:16;;;;;;;;;16.00;15.00;28.50;36.00;;;;;;109467;1257;55394;-65
2023/03/03 00:15:43;;;;;;;;;22.00;18.00;28.50;35.90;;;;;;109636;1260;54096;-66
2023/03/03 00:18:18;;;;;;;;;24.00;21.00;28.60;35.90;;;;;;109681;1259;49890;-65
2023/03/03 00:20:52;;;;;;;;;20.50;17.00;28.60;35.60;;;;;;109718;1257;48879;-64
2023/03/03 00:23:39;;;;;;;;;20.33;17.00;28.60;35.70;;;;;;109528;1259;45519;-64
2023/03/03 00:26:44;;;;;;;;;14.00;13.00;28.60;35.50;;;;;;109595;1259;55998;-64
2023/03/03 00:29:39;;;;;;;;;16.00;14.67;28.60;35.40;;;;;;109545;1255;54374;-64
2023/03/03 00:32:41;;;;;;;;;15.00;14.00;28.60;35.30;;;;;;109459;1258;50611;-64
2023/03/03 00:35:37;;;;;;;;;19.00;17.00;28.60;35.30;;;;;;109563;1259;49054;-64
2023/03/03 00:38:13;;;;;;;;;18.00;16.00;28.60;34.70;;;;;;109729;1260;46837;-67
2023/03/03 00:40:40;;;;;;;;;20.50;15.50;28.60;35.10;;;;;;109619;1257;57246;-66
2023/03/03 00:43:21;;;;;;;;;21.25;18.00;28.60;35.00;;;;;;109648;1255;53832;-66
2023/03/03 00:45:51;;;;;;;;;18.00;17.00;28.60;35.10;;;;;;109731;1255;49158;-63
2023/03/03 00:48:29;;;;;;;;;20.50;17.25;28.50;34.90;;;;;;109625;1261;50017;-64
2023/03/03 00:50:57;;;;;;;;;19.00;18.00;28.50;34.90;;;;;;109642;1258;45918;-63
2023/03/03 00:53:26;;;;;;;;;16.00;15.00;28.40;34.90;;;;;;109744;1255;55939;-63
2023/03/03 00:55:53;;;;;;;;;19.00;17.00;28.40;34.50;;;;;;109738;1255;54706;-63
2023/03/03 00:58:21;;;;;;;;;21.00;18.00;28.40;34.90;;;;;;109715;1259;49918;-63
2023/03/03 01:00:49;;;;;;;;;18.67;16.00;28.30;34.90;;;;;;109690;1256;49935;-64
2023/03/03 01:03:18;;;;;;;;;17.00;14.50;28.30;34.90;;;;;;109481;1257;45868;-62
2023/03/03 01:05:45;;;;;;;;;18.00;15.00;28.20;34.80;;;;;;109632;1257;56042;-63
2023/03/03 01:08:11;;;;;;;;;20.50;15.50;28.20;34.70;;;;;;109857;1260;54865;-64
2023/03/03 01:10:42;;;;;;;;;16.00;14.50;28.20;34.70;;;;;;109837;1255;49703;-64
2023/03/03 01:13:09;;;;;;;;;16.00;15.00;28.10;34.70;;;;;;109529;1259;49202;-64
2023/03/03 01:15:35;;;;;;;;;16.33;15.33;28.10;34.70;;;;;;109716;1255;45712;-66
2023/03/03 01:18:02;;;;;;;;;18.00;17.00;28.10;34.70;;;;;;109713;1258;55374;-64
2023/03/03 01:20:28;;;;;;;;;20.00;15.00;28.00;34.60;;;;;;109821;1260;53991;-67
2023/03/03 01:22:54;;;;;;;;;20.50;16.50;27.90;34.60;;;;;;109489;1255;49032;-64
2023/03/03 01:25:21;;;;;;;;;19.00;16.00;27.90;34.90;;;;;;109630;1258;49812;-66
2023/03/03 01:27:47;;;;;;;;;17.00;15.00;27.90;34.70;;;;;;109660;1255;45684;-65
2023/03/03 01:30:14;;;;;;;;;26.00;18.50;27.80;34.80;;;;;;109626;1255;55448;-64
2023/03/03 01:32:40;;;;;;;;;21.50;16.50;27.80;34.80;;;;;;109439;1259;54453;-64
2023/03/03 01:35:07;;;;;;;;;20.00;17.00;27.80;35.00;;;;;;109632;1259;49821;-66
2023/03/03 01:37:35;;;;;;;;;19.00;16.00;27.70;35.00;;;;;;109635;1259;50186;-66
2023/03/03 01:40:02;;;;;;;;;17.00;16.00;27.70;35.10;;;;;;109619;1261;46255;-64
2023/03/03 01:42:29;;;;;;;;;16.67;14.00;27.70;35.20;;;;;;109488;1260;55362;-67
2023/03/03 01:45:14;;;;;;;;;18.50;16.00;27.70;35.30;;;;;;109623;1255;54306;-68
2023/03/03 01:47:47;;;;;;;;;18.00;15.00;27.70;35.30;;;;;;109650;1255;49953;-65
2023/03/03 01:50:27;;;;;;;;;16.00;15.00;27.70;35.40;;;;;;109652;1257;49603;-67
2023/03/03 01:52:54;;;;;;;;;18.67;17.67;27.70;35.50;;;;;;109441;1260;46383;-65
2023/03/03 01:55:25;;;;;;;;;20.00;17.00;27.80;35.60;;;;;;109660;1260;56027;-64
2023/03/03 01:57:59;;;;;;;;;28.50;20.50;27.80;35.50;;;;;;109613;1260;53717;-63
2023/03/03 02:00:26;;;;;;;;;21.00;16.00;27.80;35.50;;;;;;109767;1255;50016;-62
2023/03/03 02:02:53;;;;;;;;;19.00;16.00;27.90;35.70;;;;;;109480;1261;48982;-63
2023/03/03 02:05:20;;;;;;;;;17.00;14.00;27.90;35.90;;;;;;109747;1257;46952;-62
2023/03/03 02:07:46;;;;;;;;;15.50;14.00;28.00;36.00;;;;;;109596;1261;56468;-63
2023/03/03 02:10:16;;;;;;;;;15.00;13.00;28.00;36.10;;;;;;109528;1258;54979;-63
2023/03/03 02:12:48;;;;;;;;;18.00;15.50;28.10;36.30;;;;;;109623;1259;49374;-63
2023/03/03 02:15:27;;;;;;;;;16.00;15.00;28.10;36.30;;;;;;109644;1257;49628;-63
2023/03/03 02:17:59;;;;;;;;;20.50;18.00;28.20;36.30;;;;;;109815;1260;45956;-62
2023/03/03 02:20:58;;;;;;;;;17.00;15.50;28.20;36.20;;;;;;109722;1259;55875;-63
2023/03/03 02:23:24;;;;;;;;;18.00;15.00;28.30;36.30;;;;;;109493;1257;54563;-63
2023/03/03 02:25:56;;;;;;;;;;;28.30;36.20;;;;;;109605;1257;49354;-62
2023/03/03 02:28:26;;;;;;;;;17.00;14.00;28.40;36.10;;;;;;109646;1255;49425;-62
2023/03/03 02:30:56;;;;;;;;;17.00;14.00;28.40;36.10;;;;;;109573;1255;45423;-63
2023/03/03 02:33:22;;;;;;;;;21.00;16.00;28.50;36.10;;;;;;109531;1260;55274;-63
2023/03/03 02:35:50;;;;;;;;;17.00;14.00;28.50;36.10;;;;;;109598;1255;54423;-63
2023/03/03 02:38:40;;;;;;;;;18.00;15.00;28.60;35.80;;;;;;109695;1255;49784;-62
2023/03/03 02:41:17;;;;;;;;;18.00;16.00;28.60;35.20;;;;;;109456;1260;49694;-62
2023/03/03 02:43:44;;;;;;;;;16.50;15.50;28.60;35.60;;;;;;109618;1257;46216;-62
2023/03/03 02:46:10;;;;;;;;;19.00;16.00;28.70;35.00;;;;;;109582;1259;55887;-63
2023/03/03 02:48:36;;;;;;;;;20.50;16.50;28.70;35.40;;;;;;109603;1255;54985;-64
2023/03/03 02:51:03;;;;;;;;;20.00;15.00;28.70;35.40;;;;;;109643;1255;50030;-62
2023/03/03 02:53:29;;;;;;;;;17.00;16.00;28.70;35.40;;;;;;109811;1260;49037;-64
2023/03/03 02:55:55;;;;;;;;;15.00;14.00;28.70;35.00;;;;;;109839;1258;45623;-63
2023/03/03 02:58:21;;;;;;;;;17.00;15.00;28.70;35.40;;;;;;109678;1255;55894;-63
2023/03/03 03:00:48;;;;;;;;;15.67;12.33;28.80;35.40;;;;;;109692;1259;54058;-63
2023/03/03 03:03:14;;;;;;;;;16.00;15.00;28.70;35.10;;;;;;109637;1257;49826;-64
2023/03/03 03:05:41;;;;;;;;;13.00;12.00;28.70;35.10;;;;;;109828;1259;49675;-64
2023/03/03 03:08:07;;;;;;;;;18.00;13.67;28.70;35.00;;;;;;109822;1255;45909;-65
2023/03/03 03:10:35;;;;;;;;;19.00;17.00;28.70;35.00;;;;;;109755;1260;56138;-64
2023/03/03 03:13:01;;;;;;;;;18.00;15.00;28.70;34.90;;;;;;109682;1255;54232;-65
2023/03/03 03:15:27;;;;;;;;;16.00;15.00;28.70;35.10;;;;;;109631;1255;50010;-66
2023/03/03 03:17:54;;;;;;;;;19.00;15.00;28.70;34.90;;;;;;109557;1259;50404;-65
2023/03/03 03:20:20;;;;;;;;;16.00;15.00;28.70;34.90;;;;;;109551;1260;46609;-64
2023/03/03 03:22:46;;;;;;;;;20.00;17.00;28.70;34.80;;;;;;109440;1255;56185;-64
2023/03/03 03:25:12;;;;;;;;;15.00;14.00;28.60;34.90;;;;;;109662;1255;53486;-63
2023/03/03 03:27:38;;;;;;;;;16.00;13.00;28.60;34.70;;;;;;109626;1260;49339;-62
2023/03/03 03:30:06;;;;;;;;;15.00;13.50;28.60;34.70;;;;;;109673;1255;51211;-62
2023/03/03 03:32:32;;;;;;;;;16.50;14.00;28.60;34.70;;;;;;109562;1259;45964;-63
2023/03/03 03:34:58;;;;;;;;;14.50;13.50;28.50;34.80;;;;;;109580;1255;56604;-61
2023/03/03 03:37:24;;;;;;;;;18.00;12.33;28.50;34.70;;;;;;109645;1260;54661;-63
2023/03/03 03:39:51;;;;;;;;;15.25;14.00;28.50;34.50;;;;;;109843;1255;49435;-65
2023/03/03 03:42:17;;;;;;;;;19.00;14.00;28.50;34.50;;;;;;109529;1255;49736;-63
2023/03/03 03:44:44;;;;;;;;;16.00;13.00;28.40;34.50;;;;;;109624;1255;45764;-63
2023/03/03 03:47:10;;;;;;;;;15.00;14.00;28.40;34.50;;;;;;109626;1259;56637;-63
2023/03/03 03:49:36;;;;;;;;;18.00;15.50;28.40;34.60;;;;;;109609;1259;54220;-64
2023/03/03 03:52:03;;;;;;;;;15.50;14.50;28.30;34.60;;;;;;109464;1259;49900;-65
2023/03/03 03:54:29;;;;;;;;;18.00;14.50;28.30;34.80;;;;;;109597;1255;49991;-63
2023/03/03 03:56:55;;;;;;;;;18.00;15.00;28.30;34.90;;;;;;109573;1255;45530;-62
2023/03/03 03:59:21;;;;;;;;;14.00;12.00;28.30;35.20;;;;;;109681;1255;55759;-64
2023/03/03 04:01:48;;;;;;;;;15.00;13.00;28.30;35.10;;;;;;109594;1255;54575;-65
2023/03/03 04:04:16;;;;;;;;;15.50;14.50;28.30;35.20;;;;;;109613;1259;50433;-65
2023/03/03 04:06:42;;;;;;;;;20.00;15.67;28.30;35.20;;;;;;109830;1260;49497;-66
2023/03/03 04:09:08;;;;;;;;;15.33;13.00;28.30;35.50;;;;;;109565;1255;46149;-66
2023/03/03 04:11:34;;;;;;;;;14.00;11.50;28.30;35.30;;;;;;109622;1257;56422;-65
2023/03/03 04:14:01;;;;;;;;;15.00;14.00;28.30;35.40;;;;;;109616;1259;54370;-64
2023/03/03 04:16:27;;;;;;;;;18.00;16.00;28.40;35.40;;;;;;109664;1255;49439;-68
2023/03/03 04:18:53;;;;;;;;;19.00;14.00;28.40;35.50;;;;;;109615;1260;48864;-68
2023/03/03 04:21:20;;;;;;;;;14.00;12.00;28.40;35.50;;;;;;109819;1260;46616;-67
2023/03/03 04:23:46;;;;;;;;;17.50;13.50;28.50;35.60;;;;;;109745;1259;55844;-67
2023/03/03 04:26:13;;;;;;;;;16.00;13.00;28.50;35.60;;;;;;109738;1261;53547;-67
2023/03/03 04:28:39;;;;;;;;;17.00;15.00;28.50;35.60;;;;;;109683;1256;49782;-69
2023/03/03 04:31:05;;;;;;;;;17.00;13.00;28.60;35.70;;;;;;109534;1259;49287;-65
2023/03/03 04:33:32;;;;;;;;;16.00;14.00;28.60;35.60;;;;;;109708;1260;47324;-68
2023/03/03 04:35:58;;;;;;;;;16.00;14.00;28.70;35.60;;;;;;109697;1256;55176;-68
2023/03/03 04:38:25;;;;;;;;;18.50;15.50;28.70;35.50;;;;;;109764;1255;53882;-69
2023/03/03 04:40:51;;;;;;;;;17.00;14.00;28.80;35.50;;;;;;109737;1259;49590;-68
2023/03/03 04:43:18;;;;;;;;;14.00;13.00;28.80;35.50;;;;;;109566;1255;49897;-68
2023/03/03 04:45:45;;;;;;;;;15.00;14.00;28.90;35.40;;;;;;109756;1255;46680;-67
2023/03/03 04:48:11;;;;;;;;;18.00;13.50;28.90;35.50;;;;;;109722;1260;55486;-69
2023/03/03 04:50:37;;;;;;;;;16.00;15.00;28.90;35.20;;;;;;109666;1260;54430;-65
2023/03/03 04:53:04;;;;;;;;;15.67;14.67;28.90;35.70;;;;;;109476;1260;50460;-65
2023/03/03 04:55:30;;;;;;;;;16.00;15.00;29.00;35.20;;;;;;109569;1257;49808;-67
2023/03/03 04:57:56;;;;;;;;;13.00;12.00;29.00;35.10;;;;;;109814;1260;46861;-67
2023/03/03 05:00:23;;;;;;;;;15.50;14.50;29.00;35.00;;;;;;109639;1257;56493;-67
2023/03/03 05:02:49;;;;;;;;;17.50;13.50;29.00;35.00;;;;;;109481;1259;54274;-68
2023/03/03 05:05:16;;;;;;;;;27.00;21.00;29.00;34.90;;;;;;109603;1257;50293;-68
2023/03/03 05:07:42;;;;;;;;;39.50;28.00;29.00;34.50;;;;;;109690;1255;49636;-68
2023/03/03 05:10:09;;;;;;;;;40.00;27.00;29.00;33.90;;;;;;109760;1258;45680;-69
2023/03/03 05:12:35;;;;;;;;;38.50;30.50;29.00;33.90;;;;;;109709;1260;56064;-69
2023/03/03 05:15:02;;;;;;;;;35.50;29.00;28.90;35.20;;;;;;109552;1257;53400;-72
2023/03/03 05:17:28;;;;;;;;;26.50;25.50;28.90;34.60;;;;;;109545;1259;49746;-69
2023/03/03 05:19:56;;;;;;;;;30.00;26.00;28.90;34.20;;;;;;109641;1259;49076;-66
2023/03/03 05:22:23;;;;;;;;;39.00;27.00;28.70;34.40;;;;;;109618;1257;45702;-67
2023/03/03 05:24:49;;;;;;;;;27.00;26.00;28.70;33.20;;;;;;109887;1260;55268;-66
2023/03/03 05:27:16;;;;;;;;;25.00;23.00;28.50;29.00;;;;;;109778;1256;54249;-66
2023/03/03 05:29:42;;;;;;;;;27.00;26.00;28.40;28.50;;;;;;109588;1260;50916;-66
2023/03/03 05:32:08;;;;;;;;;26.00;22.00;28.20;27.90;;;;;;109546;1259;49906;-66
2023/03/03 05:34:35;;;;;;;;;27.00;23.00;28.00;27.90;;;;;;109589;1255;45513;-67
2023/03/03 05:37:02;;;;;;;;;22.67;21.00;27.80;28.00;;;;;;109611;1260;55288;-67
2023/03/03 05:39:28;;;;;;;;;27.50;24.50;27.60;27.70;;;;;;109630;1259;53601;-67
2023/03/03 05:41:55;;;;;;;;;27.00;26.00;27.30;28.00;;;;;;109626;1255;49546;-66
2023/03/03 05:44:22;;;;;;;;;28.50;27.50;27.00;28.20;;;;;;109656;1255;50089;-67
2023/03/03 05:46:48;;;;;;;;;28.50;27.50;26.80;28.20;;;;;;109643;1257;45729;-66
2023/03/03 05:49:14;;;;;;;;;27.00;25.00;26.50;28.30;;;;;;109733;1257;56625;-68
2023/03/03 05:51:40;;;;;;;;;27.67;23.33;26.20;28.50;;;;;;109654;1260;54116;-68
2023/03/03 05:54:06;;;;;;;;;23.50;22.50;25.90;28.80;;;;;;109655;1259;50460;-68
2023/03/03 05:56:33;;;;;;;;;27.00;26.00;25.60;28.80;;;;;;109588;1255;49350;-68
2023/03/03 05:58:59;;;;;;;;;29.00;26.00;25.40;29.20;;;;;;109593;1255;46325;-67
2023/03/03 06:01:26;;;;;;;;;;;25.10;29.10;;;;;;109639;1256;55348;-67
2023/03/03 06:03:52;;;;;;;;;28.00;25.00;24.90;29.00;;;;;;109746;1260;54488;-67
2023/03/03 06:06:18;;;;;;;;;27.50;24.50;24.60;29.50;;;;;;109825;1259;49425;-68
2023/03/03 06:08:45;;;;;;;;;29.00;28.00;24.40;29.50;;;;;;109593;1260;49297;-67
2023/03/03 06:11:11;;;;;;;;;33.00;30.00;24.20;29.70;;;;;;109691;1258;45612;-67
2023/03/03 06:13:39;;;;;;;;;27.00;24.00;24.00;29.80;;;;;;109572;1255;55769;-67
2023/03/03 06:16:06;;;;;;;;;27.00;22.50;23.80;30.20;;;;;;109607;1255;54725;-67
2023/03/03 06:18:33;;;;;;;;;24.00;23.00;23.60;31.10;;;;;;109619;1255;50513;-67
2023/03/03 06:20:59;;;;;;;;;27.00;25.00;23.50;30.90;;;;;;109633;1257;50611;-65
2023/03/03 06:23:25;;;;;;;;;32.00;25.00;23.30;31.10;;;;;;109646;1256;46084;-66
2023/03/03 06:25:52;;;;;;;;;28.00;23.00;23.30;31.50;;;;;;109573;1255;56687;-68
2023/03/03 06:28:18;;;;;;;;;22.00;19.00;23.20;31.70;;;;;;109585;1260;53772;-68
2023/03/03 06:30:44;;;;;;;;;25.00;22.00;23.10;32.20;;;;;;109751;1261;50235;-69
2023/03/03 06:33:11;;;;;;;;;25.00;23.00;23.10;32.20;;;;;;109605;1260;49370;-65
2023/03/03 06:35:37;;;;;;;;;24.00;20.00;23.10;32.30;;;;;;109577;1257;45897;-66
2023/03/03 06:38:03;;;;;;;;;23.00;22.00;23.10;32.40;;;;;;109646;1255;55239;-67
2023/03/03 06:40:30;;;;;;;;;25.00;23.00;23.10;32.70;;;;;;109695;1256;54765;-66
2023/03/03 06:42:56;;;;;;;;;30.00;19.50;23.00;32.80;;;;;;109654;1259;50004;-66
2023/03/03 06:45:22;;;;;;;;;23.00;21.50;23.00;32.90;;;;;;109710;1257;49099;-67
2023/03/03 06:47:48;;;;;;;;;28.00;23.00;23.00;32.90;;;;;;109613;1256;46184;-67
2023/03/03 06:50:18;;;;;;;;;25.00;20.00;23.00;33.00;;;;;;109618;1257;55405;-67
2023/03/03 06:52:44;;;;;;;;;29.00;23.50;23.10;33.10;;;;;;109578;1260;54987;-69
2023/03/03 06:55:22;;;;;;;;;21.00;19.00;23.00;33.10;;;;;;109562;1259;49177;-69
2023/03/03 06:57:48;;;;;;;;;19.00;17.00;23.10;33.10;;;;;;109674;1255;49737;-68
2023/03/03 07:00:19;;;;;;;;;21.00;20.00;23.10;33.10;;;;;;109555;1260;46109;-67
2023/03/03 07:02:47;;;;;;;;;28.00;22.00;23.10;33.10;;;;;;109664;1257;55921;-67
2023/03/03 07:05:15;;;;;;;;;23.00;20.00;23.10;33.10;;;;;;109584;1259;146445;-69
2023/03/03 07:07:42;;;;;;;;;26.50;22.00;23.10;33.10;;;;;;109758;1255;49481;-69
2023/03/03 07:10:25;;;;;;;;;20.00;19.00;23.10;33.10;;;;;;109856;1260;49808;-68
2023/03/03 07:12:52;;;;;;;;;21.50;20.00;23.10;33.30;;;;;;109777;1258;45878;-67
2023/03/03 07:15:33;;;;;;;;;22.50;19.00;23.10;33.30;;;;;;109617;1255;55478;-69
2023/03/03 07:18:01;;;;;;;;;21.00;19.00;23.10;33.10;;;;;;109649;1255;54534;-68
2023/03/03 07:20:35;;;;;;;;;20.50;19.00;23.10;33.10;;;;;;109658;1255;49407;-68
2023/03/03 07:23:17;;;;;;;;;22.00;20.00;23.20;33.40;;;;;;109699;1260;49756;-69
2023/03/03 07:25:45;;;;;;;;;22.00;19.50;23.20;33.20;;;;;;109711;1260;46220;-70
2023/03/03 07:28:28;;;;;;;;;23.00;19.50;23.20;33.10;;;;;;109710;1256;55945;-66
2023/03/03 07:30:56;;;;;;;;;19.00;17.00;23.20;33.10;;;;;;109677;1257;54215;-66
2023/03/03 07:33:47;;;;;;;;;24.00;22.00;23.20;33.30;;;;;;109587;1257;50351;-70
2023/03/03 07:36:31;;;;;;;;;19.00;18.00;23.20;33.10;;;;;;109640;1259;50171;-69
2023/03/03 07:39:00;;;;;;;;;26.50;23.00;23.30;33.10;;;;;;109722;1259;46075;-70
2023/03/03 07:41:27;;;;;;;;;22.00;19.00;23.30;33.10;;;;;;109757;1256;55061;-69
2023/03/03 07:43:54;;;;;;;;;21.00;20.00;23.30;33.30;;;;;;109869;1259;53847;-69
2023/03/03 07:46:22;;;;;;;;;25.00;20.00;23.30;33.10;;;;;;109637;1255;49688;-67
2023/03/03 07:48:50;;;;;;;;;19.00;17.50;23.30;33.10;;;;;;109652;1260;50256;-69
2023/03/03 07:51:26;;;;;;;;;23.50;20.50;23.30;33.10;;;;;;109739;1260;45744;-65
2023/03/03 07:54:16;;;;;;;;;21.00;18.50;23.30;33.10;;;;;;109752;1255;55604;-67
2023/03/03 07:56:43;;;;;;;;;18.00;16.00;23.30;33.10;;;;;;109766;1255;54698;-67
2023/03/03 07:59:20;;;;;;;;;23.50;19.50;23.30;33.00;;;;;;109788;1260;49897;-68
2023/03/03 08:01:54;;;;;;;;;18.00;17.00;23.40;33.10;;;;;;109778;1255;49033;-67
2023/03/03 08:04:23;;;;;;;;;19.50;16.50;23.40;33.10;;;;;;109757;1255;45529;-66
2023/03/03 08:06:58;;;;;;;;;23.33;20.67;23.40;33.00;;;;;;109796;1255;56063;-66
2023/03/03 08:09:42;;;;;;;;;18.50;14.50;23.40;33.00;;;;;;109549;1261;53373;-66
2023/03/03 08:12:20;;;;;;;;;17.00;16.00;23.40;34.20;;;;;;109701;1260;49148;-62
2023/03/03 08:14:46;;;;;;;;;16.00;15.00;23.40;34.00;;;;;;109820;1260;49640;-62
2023/03/03 08:17:13;;;;;;;;;15.50;14.50;23.40;33.70;;;;;;109707;1256;45747;-61
2023/03/03 08:19:39;;;;;;;;;21.00;17.00;23.40;33.90;;;;;;109630;1257;56529;-62
2023/03/03 08:22:12;;;;;;;;;16.00;14.00;23.40;34.30;;;;;;109820;1260;55014;-62
2023/03/03 08:24:39;;;;;;;;;20.50;14.50;23.40;34.60;;;;;;109558;1261;49530;-65
2023/03/03 08:27:05;;;;;;;;;17.50;16.00;23.40;34.80;;;;;;109811;1259;49164;-67
2023/03/03 08:29:31;;;;;;;;;20.00;17.00;23.50;35.20;;;;;;109766;1256;46231;-66
2023/03/03 08:31:57;;;;;;;;;23.00;17.00;23.50;35.10;;;;;;109805;1255;55267;-67
2023/03/03 08:34:24;;;;;;;;;15.50;14.00;23.50;35.10;;;;;;109975;1255;53849;-65
2023/03/03 08:36:50;;;;;;;;;19.00;16.00;23.60;35.20;;;;;;109986;1255;50695;-67
2023/03/03 08:39:16;;;;;;;;;16.00;14.50;23.60;35.30;;;;;;110081;1255;49439;-76
2023/03/03 08:41:43;;;;;;;;;18.00;16.00;23.70;36.00;;;;;;110425;1255;45752;-71
2023/03/03 08:44:10;;;;;;;;;18.00;16.50;23.80;35.90;;;;;;109819;1257;56561;-65
2023/03/03 08:46:36;;;;;;;;;20.00;17.00;24.00;35.80;;;;;;109792;1257;54032;-65
2023/03/03 08:49:02;;;;;;;;;22.00;20.00;24.10;35.70;;;;;;109636;1255;49752;-66
2023/03/03 08:51:29;;;;;;;;;24.00;20.00;24.20;35.80;;;;;;109914;1255;49621;-61
2023/03/03 08:53:55;;;;;;;;;30.50;23.50;24.30;36.00;;;;;;109904;1260;45967;-59
2023/03/03 08:56:21;;;;;;;;;20.00;19.00;24.40;36.10;;;;;;109779;1259;55574;-61
2023/03/03 08:58:48;;;;;;;;;21.50;17.00;24.50;36.30;;;;;;109697;1257;53798;-66
2023/03/03 09:01:15;;;;;;;;;18.50;15.00;24.60;36.20;;;;;;109809;1260;49891;-66
2023/03/03 09:03:43;;;;;;;;;16.00;14.00;24.60;36.20;;;;;;109843;1260;50428;-61
2023/03/03 09:06:10;;;;;;;;;21.00;18.00;24.80;36.50;;;;;;109880;1257;46160;-67
2023/03/03 09:08:36;;;;;;;;;17.00;16.00;24.90;36.40;;;;;;109643;1260;57057;-68
2023/03/03 09:11:09;;;;;;;;;21.00;16.67;25.10;36.30;;;;;;109870;1255;53625;-62
2023/03/03 09:13:36;;;;;;;;;18.00;17.00;25.30;36.60;;;;;;109645;1257;49393;-61
2023/03/03 09:16:10;;;;;;;;;17.00;13.00;25.40;36.30;;;;;;109747;1255;49154;-68
2023/03/03 09:18:38;;;;;;;;;14.67;13.67;25.60;36.50;;;;;;109726;1260;45563;-61
2023/03/03 09:21:25;;;;;;;;;20.00;16.00;25.70;36.70;;;;;;109701;1257;56323;-63
2023/03/03 09:23:55;;;;;;;;;18.00;15.00;25.90;36.50;;;;;;109916;1260;53565;-65
2023/03/03 09:26:28;;;;;;;;;18.00;15.67;26.00;36.80;;;;;;109776;1255;49506;-62
2023/03/03 09:29:22;;;;;;;;;18.50;15.00;26.20;36.40;;;;;;109608;1259;49814;-59
2023/03/03 09:31:53;;;;;;;;;18.00;17.00;26.40;36.10;;;;;;109895;1260;45143;-62
2023/03/03 09:34:21;;;;;;;;;20.00;17.00;26.50;35.90;;;;;;109736;1260;55758;-62
2023/03/03 09:36:48;;;;;;;;;22.00;17.00;26.60;36.10;;;;;;109742;1255;53715;-61
2023/03/03 09:39:18;;;;;;;;;22.00;19.00;26.70;35.90;;;;;;109798;1255;49588;-64
2023/03/03 09:42:06;;;;;;;;;19.00;18.00;26.90;35.80;;;;;;109711;1255;50351;-63
2023/03/03 09:44:56;;;;;;;;;19.00;17.00;26.90;35.50;;;;;;109693;1261;46078;-63
2023/03/03 09:47:42;;;;;;;;;18.00;16.50;27.00;35.60;;;;;;109450;1261;56218;-61
2023/03/03 09:50:34;;;;;;;;;19.00;17.00;27.10;35.50;;;;;;109900;1255;53388;-61
2023/03/03 09:53:03;;;;;;;;;17.00;15.00;27.20;35.60;;;;;;109760;1255;49492;-62
2023/03/03 09:55:44;;;;;;;;;29.00;19.25;27.30;35.60;;;;;;109904;1260;49136;-70
2023/03/03 09:58:29;;;;;;;;;17.00;16.00;27.30;35.00;;;;;;109765;1260;45433;-70
2023/03/03 10:01:14;;;;;;;;;18.00;16.50;27.40;34.80;;;;;;109754;1260;55707;-60
2023/03/03 10:03:40;;;;;;;;;;;27.40;34.60;;;;;;109787;1259;53790;-60
2023/03/03 10:06:38;;;;;;;;;21.00;20.00;27.50;34.80;;;;;;109672;1260;49169;-60
2023/03/03 10:09:13;;;;;;;;;20.00;19.00;27.50;34.80;;;;;;109681;1257;49689;-61
2023/03/03 10:11:51;;;;;;;;;17.50;16.50;27.60;34.80;;;;;;109694;1261;45666;-63
2023/03/03 10:14:20;;;;;;;;;16.00;15.00;27.60;34.80;;;;;;109749;1260;55308;-63
2023/03/03 10:16:47;;;;;;;;;17.00;16.00;27.60;34.70;;;;;;109744;1260;54819;-63
2023/03/03 10:19:13;;;;;;;;;18.00;16.00;27.60;35.30;;;;;;109790;1260;49546;-65
2023/03/03 10:22:02;;;;;;;;;16.00;15.00;27.70;34.70;;;;;;109740;1260;50058;-63
2023/03/03 10:24:43;;;;;;;;;17.50;15.00;27.70;34.80;;;;;;109694;1256;46068;-66
2023/03/03 10:27:26;;;;;;;;;14.00;13.00;27.70;34.90;;;;;;109688;1258;55600;-71
2023/03/03 10:30:17;;;;;;;;;19.00;16.00;27.80;34.70;;;;;;109696;1256;53908;-64
2023/03/03 10:32:51;;;;;;;;;18.50;14.00;27.80;35.00;;;;;;109674;1261;49616;-64
2023/03/03 10:35:31;;;;;;;;;17.00;15.00;27.90;35.20;;;;;;109839;1260;49209;-64
2023/03/03 10:38:18;;;;;;;;;16.00;14.50;27.90;35.00;;;;;;109782;1260;45306;-64
2023/03/03 10:40:55;;;;;;;;;21.00;15.00;28.00;34.40;;;;;;109633;1260;56056;-64
2023/03/03 10:43:31;;;;;;;;;16.67;15.00;28.00;32.80;;;;;;109633;1260;53665;-65
2023/03/03 10:46:13;;;;;;;;;16.50;15.50;28.00;32.90;;;;;;109589;1260;50089;-64
2023/03/03 10:48:54;;;;;;;;;17.50;15.00;28.00;32.30;;;;;;109600;1255;50511;-73
2023/03/03 10:51:50;;;;;;;;;16.00;15.00;28.00;32.30;;;;;;109672;1260;45402;-69
2023/03/03 10:54:29;;;;;;;;;20.50;16.00;28.00;32.00;;;;;;109619;1257;55981;-67
2023/03/03 10:57:10;;;;;;;;;21.50;19.00;28.00;31.80;;;;;;109579;1257;53916;-59
2023/03/03 11:00:13;;;;;;;;;23.50;21.00;28.00;29.20;;;;;;109609;1255;50240;-60
2023/03/03 11:02:57;;;;;;;;;22.00;21.00;28.00;28.50;;;;;;109725;1259;49733;-60
2023/03/03 11:05:48;;;;;;;;;18.50;16.50;28.00;28.20;;;;;;109742;1261;45969;-68
2023/03/03 11:08:35;;;;;;;;;18.00;15.00;27.90;28.80;;;;;;109552;1260;56384;-73
2023/03/03 11:11:26;;;;;;;;;16.00;15.00;27.90;29.10;;;;;;109832;1259;54190;-75
2023/03/03 11:13:58;;;;;;;;;16.33;15.33;27.90;29.50;;;;;;109732;1260;49314;-74
2023/03/03 11:16:34;;;;;;;;;20.00;18.00;28.00;29.70;;;;;;109640;1260;49465;-67
2023/03/03 11:19:22;;;;;;;;;17.50;15.00;28.10;30.00;;;;;;109796;1260;45543;-65
2023/03/03 11:22:35;;;;;;;;;20.50;17.00;28.20;30.10;;;;;;109745;1255;56157;-69
2023/03/03 11:25:20;;;;;;;;;18.50;17.50;28.20;30.40;;;;;;109480;1255;54018;-65
2023/03/03 11:28:14;;;;;;;;;18.00;15.00;28.40;30.50;;;;;;109673;1255;49149;-66
2023/03/03 11:31:13;;;;;;;;;18.00;17.00;28.50;30.50;;;;;;109658;1259;48945;-68
2023/03/03 11:33:44;;;;;;;;;18.33;17.33;28.50;29.30;;;;;;109488;1259;45772;-65
2023/03/03 11:36:18;;;;;;;;;;;28.50;30.00;;;;;;109745;1258;55345;-64
2023/03/03 11:39:06;;;;;;;;;22.00;20.00;28.50;29.40;;;;;;109761;1260;54149;-61
2023/03/03 11:41:42;;;;;;;;;23.00;22.00;28.50;29.40;;;;;;109715;1260;49857;-67
2023/03/03 11:44:30;;;;;;;;;19.00;17.00;28.50;29.40;;;;;;109611;1255;49083;-62
2023/03/03 11:47:03;;;;;;;;;21.00;18.00;28.50;28.70;;;;;;109617;1255;45354;-62
2023/03/03 11:49:46;;;;;;;;;17.00;15.00;28.50;28.70;;;;;;109567;1257;56223;-62
2023/03/03 11:52:35;;;;;;;;;15.50;15.00;28.40;29.00;;;;;;109591;1257;55399;-64
2023/03/03 11:55:34;;;;;;;;;;;28.40;29.20;;;;;;109654;1259;50973;-67
2023/03/03 11:58:06;;;;;;;;;20.00;16.00;28.30;29.20;;;;;;109243;1260;48280;-68
2023/03/03 12:00:51;;;;;;;;;20.00;19.00;28.30;29.40;;;;;;109713;1255;45793;-67
2023/03/03 12:03:25;;;;;;;;;19.33;17.00;28.30;29.50;;;;;;109843;1255;56069;-65
2023/03/03 12:05:56;;;;;;;;;22.00;19.00;28.30;29.10;;;;;;109700;1255;53450;-64
2023/03/03 12:08:41;;;;;;;;;21.00;16.00;28.20;28.40;;;;;;109573;1259;50188;-63
2023/03/03 12:11:10;;;;;;;;;22.00;17.00;28.10;28.20;;;;;;109804;1260;49744;-65
2023/03/03 12:13:52;;;;;;;;;20.00;16.00;28.10;27.80;;;;;;109596;1258;46124;-61
2023/03/03 12:16:34;;;;;;;;;21.00;18.00;28.10;27.80;;;;;;109581;1260;55922;-60
2023/03/03 12:19:10;;;;;;;;;20.00;17.00;28.10;28.80;;;;;;109619;1260;54592;-62
2023/03/03 12:21:54;;;;;;;;;18.00;16.00;28.10;29.40;;;;;;109900;1255;49583;-63
2023/03/03 12:24:44;;;;;;;;;31.00;10.50;28.00;29.40;;;;;;109756;1255;49431;-61
2023/03/03 12:27:22;;;;;;;;;17.00;16.00;28.00;29.50;;;;;;109595;1260;46159;-61
2023/03/03 12:30:00;;;;;;;;;17.00;16.00;28.10;29.20;;;;;;109673;1255;56181;-63
2023/03/03 12:32:30;;;;;;;;;24.00;16.00;28.10;28.70;;;;;;109763;1255;54087;-64
2023/03/03 12:35:24;;;;;;;;;17.00;15.50;28.10;26.80;;;;;;109632;1260;50228;-62
2023/03/03 12:38:10;;;;;;;;;20.50;17.50;28.00;25.20;;;;;;109675;1260;50511;-64
2023/03/03 12:40:56;;;;;;;;;20.50;18.00;27.80;26.60;;;;;;109640;1255;45363;-64
2023/03/03 12:43:35;;;;;;;;;20.00;18.00;27.60;27.90;;;;;;109624;1258;55273;-63